KCDS/CDS METAR and TAF weather

Enter ICAO airport designator
Station Type Date Time Source
KCDS METAR 2018/12/12 16:53 UTC NOAA

KCDS 121653Z AUTO 34006KT 10SM CLR 06/01 A2992 RMK AO2 SLP131 T00610006


Station Type Date Time Source
KCDS Decoded METAR 2018/12/12 16:53 UTC NOAA

CHILDRESS MUNICIPAL AIRPORT, TX, United States (KCDS) 34-26N 100-17W 594M
Dec 12, 2018 - 11:53 AM EST / 2018.12.12 1653 UTC
Wind: from the NNW (340 degrees) at 7 MPH (6 KT):0
Visibility: 10 mile(s):0
Sky conditions: clear
Temperature: 43.0 F (6.1 C)
Dew Point: 33.1 F (0.6 C)
Relative Humidity: 67%
Pressure (altimeter): 29.92 in. Hg (1013 hPa)
ob: KCDS 121653Z AUTO 34006KT 10SM CLR 06/01 A2992 RMK AO2 SLP131 T00610006
cycle: 17

Station Type Date Time Source
KCDS TAF 2018/12/12 13:24 UTC NOAA

TAF
AMD KCDS 121322Z 1213/1312 30007KT P6SM BKN250
TEMPO 1213/1216 BKN006
FM130000 19011KT P6SM SCT250
FM131100 36031G46KT P6SM BKN035


Example: see airport list